Antonito, Colorado
Current Conditions -  °F | °C
As of 1:52 PM on Sunday 23 Nov 2014 (Local Time) from KALS Reporting Station
Clear Clear  
Wind Chill: -3°   Ceiling: Unl
Heat Index:   Visibility: 10mi
Dew Point: -17°   Wind: 25mph
Humidity: 22%   Direction: 330°NNW
Pressure: 29.75"   Gusts: 33mph
Location:  37.08°N, 106.01°W
Report Text: KALS 232052Z AUTO 33022G29KT 10SM CLR 03/M17 A2975 RMK AO2 PK WND 34029/2006 SLP078 T00331167 58004
Loading
Personal Weather Stations






























Interactive Weather Map New forecast layout! Learn more

10-Day Weather Forecast

Advertisements
Track Severe Weather on mobile